Ulman, Missouri
Current Conditions -  °F | °C
As of 5:55 AM on Thursday 27 Nov 2014 (Local Time) from KAIZ Reporting Station
Overcast Overcast  
Wind Chill: 23°   Ceiling: 1500
Heat Index: 30°   Visibility: 8mi
Dew Point: 25°   Wind: 7mph
Humidity: 80%   Direction: 320°NW
Pressure: 30.44"   Gusts: NA
Location:  38.15°N, 92.44°W
Report Text: KAIZ 271155Z AUTO 32006KT 8SM OVC015 M01/M04 A3044 RMK AO1 70019 10010 21010 52014
Loading
Personal Weather Stations






























Interactive Weather Map New forecast layout! Learn more

10-Day Weather Forecast

Advertisements
Track Severe Weather on mobile